createdAt,value
2022-08-25T00:02:17.598Z,22.21
2022-08-25T00:04:44.808Z,22.23
2022-08-25T00:07:20.414Z,22.22
2022-08-25T00:09:47.157Z,22.20
2022-08-25T00:12:15.121Z,22.19
2022-08-25T00:14:43.071Z,22.16
2022-08-25T00:17:11.334Z,22.12
2022-08-25T00:19:39.087Z,22.11
2022-08-25T00:22:08.063Z,22.09
2022-08-25T00:24:35.315Z,22.04
2022-08-25T00:27:02.027Z,22.02
2022-08-25T00:29:29.525Z,22.04
2022-08-25T00:31:59.185Z,22.04
2022-08-25T00:34:30.846Z,22.03
2022-08-25T00:36:57.472Z,22.01
2022-08-25T00:39:25.463Z,21.99
2022-08-25T00:41:56.653Z,21.97
2022-08-25T00:44:25.294Z,21.99
2022-08-25T00:46:54.902Z,21.98
2022-08-25T00:49:27.084Z,21.95
2022-08-25T00:52:15.942Z,21.85
2022-08-25T00:54:52.283Z,21.78
2022-08-25T00:57:28.967Z,21.71
2022-08-25T01:00:03.485Z,21.69
2022-08-25T01:02:31.149Z,21.69
2022-08-25T01:04:58.797Z,21.67
2022-08-25T01:07:25.502Z,21.64
2022-08-25T01:09:52.714Z,21.59
2022-08-25T01:12:20.549Z,21.55
2022-08-25T01:14:48.697Z,21.57
2022-08-25T01:17:15.703Z,21.60
2022-08-25T01:19:42.596Z,21.63
2022-08-25T01:22:12.419Z,21.65
2022-08-25T01:24:51.287Z,21.61
2022-08-25T01:27:17.882Z,21.50
2022-08-25T01:29:44.499Z,21.44
2022-08-25T01:32:13.625Z,21.37
2022-08-25T01:34:43.215Z,21.31
2022-08-25T01:37:13.960Z,21.23
2022-08-25T01:39:42.526Z,21.21
2022-08-25T01:42:28.124Z,21.21
2022-08-25T01:44:57.295Z,21.17
2022-08-25T01:47:24.365Z,21.06
2022-08-25T01:49:51.804Z,21.01
2022-08-25T01:52:40.088Z,21.05
2022-08-25T01:55:07.919Z,21.08
2022-08-25T01:57:34.485Z,21.06
2022-08-25T02:00:01.987Z,21.06
2022-08-25T02:02:28.605Z,21.14
2022-08-25T02:04:59.784Z,21.17
2022-08-25T02:07:26.792Z,21.18
2022-08-25T02:09:53.285Z,21.16
2022-08-25T02:12:20.660Z,21.07
2022-08-25T02:14:47.102Z,21.02
2022-08-25T02:17:13.611Z,21.00
2022-08-25T02:19:40.203Z,20.95
2022-08-25T02:22:06.984Z,20.93
2022-08-25T02:24:33.513Z,20.94
2022-08-25T02:27:00.016Z,20.94
2022-08-25T02:29:26.624Z,20.98
2022-08-25T02:31:53.477Z,20.95
2022-08-25T02:34:20.719Z,20.93
2022-08-25T02:36:49.887Z,20.97
2022-08-25T02:39:17.554Z,20.96
2022-08-25T02:41:44.238Z,20.93
2022-08-25T02:44:10.816Z,20.89
2022-08-25T02:46:37.888Z,20.84
2022-08-25T02:49:06.376Z,20.81
2022-08-25T02:51:34.630Z,20.85
2022-08-25T02:54:03.710Z,20.88
2022-08-25T02:56:31.862Z,20.89
2022-08-25T02:59:00.557Z,20.91
2022-08-25T03:01:30.188Z,20.91
2022-08-25T03:03:57.519Z,20.89
2022-08-25T03:06:25.858Z,20.89
2022-08-25T03:08:53.252Z,20.84
2022-08-25T03:11:20.521Z,20.85
2022-08-25T03:13:48.088Z,20.85
2022-08-25T03:16:14.686Z,20.80
2022-08-25T03:18:42.591Z,20.75
2022-08-25T03:21:11.723Z,20.70
2022-08-25T03:23:41.334Z,20.60
2022-08-25T03:26:27.255Z,20.42
2022-08-25T03:28:55.764Z,20.29
2022-08-25T03:31:26.185Z,20.28
2022-08-25T03:33:53.549Z,20.29
2022-08-25T03:36:20.096Z,20.34
2022-08-25T03:38:46.674Z,20.35
2022-08-25T03:41:16.053Z,20.38
2022-08-25T03:43:45.042Z,20.34
2022-08-25T03:46:43.492Z,20.09
2022-08-25T03:49:16.221Z,20.02
2022-08-25T03:51:47.331Z,20.02
2022-08-25T03:54:16.131Z,20.09
2022-08-25T03:56:43.498Z,20.15
2022-08-25T03:59:10.291Z,20.19
2022-08-25T04:01:41.883Z,20.23
2022-08-25T04:04:10.638Z,20.29
2022-08-25T04:06:39.036Z,20.31
2022-08-25T04:09:05.609Z,20.33
2022-08-25T04:11:32.156Z,20.31
2022-08-25T04:14:01.157Z,20.31
2022-08-25T04:16:38.616Z,20.31
2022-08-25T04:19:08.874Z,20.29
2022-08-25T04:21:37.584Z,20.27
2022-08-25T04:24:04.867Z,20.23
2022-08-25T04:26:37.205Z,20.16
2022-08-25T04:29:06.641Z,20.11
2022-08-25T04:31:34.056Z,20.06
2022-08-25T04:34:14.807Z,20.00
2022-08-25T04:36:52.766Z,19.94
2022-08-25T04:39:23.277Z,19.88
2022-08-25T04:41:52.105Z,19.82
2022-08-25T04:44:18.752Z,19.88
2022-08-25T04:46:45.950Z,19.89
2022-08-25T04:49:14.873Z,19.89
2022-08-25T04:51:41.915Z,19.90
2022-08-25T04:54:12.428Z,19.92
2022-08-25T04:56:43.105Z,19.96
2022-08-25T04:59:15.726Z,19.97
2022-08-25T05:01:43.898Z,19.95
2022-08-25T05:04:14.678Z,19.90
2022-08-25T05:06:54.935Z,19.92
2022-08-25T05:09:25.100Z,19.93
2022-08-25T05:11:52.444Z,19.93
2022-08-25T05:14:29.910Z,19.85
2022-08-25T05:16:58.020Z,19.80
2022-08-25T05:19:26.493Z,19.80
2022-08-25T05:21:53.826Z,19.84
2022-08-25T05:24:21.577Z,19.98
2022-08-25T05:26:48.135Z,20.02
2022-08-25T05:29:15.696Z,20.02
2022-08-25T05:31:48.290Z,20.03
2022-08-25T05:34:18.358Z,20.01
2022-08-25T05:36:44.929Z,19.99
2022-08-25T05:39:11.752Z,20.03
2022-08-25T05:41:38.663Z,20.06
2022-08-25T05:44:05.685Z,20.12
2022-08-25T05:46:32.921Z,20.21
2022-08-25T05:49:02.076Z,20.23
2022-08-25T05:51:29.431Z,20.27
2022-08-25T05:53:56.074Z,20.30
2022-08-25T05:56:22.995Z,20.39
2022-08-25T05:58:50.288Z,20.48
2022-08-25T06:01:45.248Z,20.52
2022-08-25T06:04:12.788Z,20.63
2022-08-25T06:06:40.461Z,20.86
2022-08-25T06:09:09.892Z,20.97
2022-08-25T06:11:39.737Z,21.09
2022-08-25T06:14:07.594Z,21.24
2022-08-25T06:16:34.350Z,21.39
2022-08-25T06:19:01.534Z,21.55
2022-08-25T06:21:28.237Z,21.72
2022-08-25T06:23:54.995Z,21.83
2022-08-25T06:26:21.757Z,21.87
2022-08-25T06:28:52.436Z,21.97
2022-08-25T06:31:20.493Z,22.17
2022-08-25T06:33:47.249Z,22.31
2022-08-25T06:36:15.218Z,22.45
2022-08-25T06:38:42.089Z,22.59
2022-08-25T06:41:12.701Z,22.86
2022-08-25T06:43:46.624Z,23.08
2022-08-25T06:46:35.836Z,23.31
2022-08-25T06:49:09.785Z,23.44
2022-08-25T06:51:36.560Z,23.61
2022-08-25T06:54:04.927Z,23.73
2022-08-25T06:56:59.756Z,23.72
2022-08-25T06:59:32.331Z,23.77
2022-08-25T07:02:00.997Z,23.87
2022-08-25T07:04:30.171Z,23.88
2022-08-25T07:06:57.199Z,23.99
2022-08-25T07:09:24.158Z,24.12
2022-08-25T07:11:51.125Z,24.19
2022-08-25T07:14:18.564Z,24.28
2022-08-25T07:16:50.418Z,24.35
2022-08-25T07:19:23.145Z,24.50
2022-08-25T07:21:52.989Z,24.57
2022-08-25T07:24:20.405Z,24.68
2022-08-25T07:26:47.820Z,24.82
2022-08-25T07:32:08.736Z,24.89
2022-08-25T07:34:56.015Z,24.90
2022-08-25T07:37:47.774Z,25.00
2022-08-25T07:40:23.319Z,25.03
2022-08-25T07:42:51.946Z,25.10
2022-08-25T07:45:21.762Z,25.21
2022-08-25T07:47:56.967Z,25.33
2022-08-25T07:50:27.428Z,25.35
2022-08-25T07:52:56.824Z,25.41
2022-08-25T07:55:26.270Z,25.58
2022-08-25T07:58:05.727Z,25.68
2022-08-25T08:00:34.098Z,25.78
2022-08-25T08:03:15.954Z,25.85
2022-08-25T08:05:50.799Z,25.86
2022-08-25T08:08:19.066Z,25.81
2022-08-25T08:11:04.637Z,25.72
2022-08-25T08:13:37.889Z,25.82
2022-08-25T08:16:13.190Z,26.08
2022-08-25T08:18:40.028Z,26.22
2022-08-25T08:21:13.236Z,26.26
2022-08-25T08:23:47.656Z,26.34
2022-08-25T08:26:15.252Z,26.45
2022-08-25T08:28:43.613Z,26.44
2022-08-25T08:31:12.893Z,26.51
2022-08-25T08:33:40.835Z,26.49
2022-08-25T08:36:12.021Z,26.56
2022-08-25T08:38:42.042Z,26.65
2022-08-25T08:42:07.354Z,26.76
2022-08-25T08:44:36.792Z,26.89
2022-08-25T08:47:13.282Z,26.75
2022-08-25T08:49:47.351Z,26.63
2022-08-25T08:52:17.046Z,26.67
2022-08-25T08:54:46.608Z,26.80
2022-08-25T08:57:19.825Z,26.97
2022-08-25T08:59:48.986Z,27.21
2022-08-25T09:02:51.767Z,27.38
2022-08-25T09:05:21.530Z,27.39
2022-08-25T09:08:20.553Z,27.44
2022-08-25T09:10:58.621Z,27.53
2022-08-25T09:13:51.043Z,27.52
2022-08-25T09:16:58.186Z,27.58
2022-08-25T09:19:58.282Z,27.40
2022-08-25T09:22:36.200Z,27.39
2022-08-25T09:25:48.756Z,27.37
2022-08-25T09:28:21.607Z,27.57
2022-08-25T09:31:22.877Z,27.70
2022-08-25T09:33:57.204Z,27.77
2022-08-25T09:36:27.263Z,27.87
2022-08-25T09:38:54.319Z,27.94
2022-08-25T09:41:42.882Z,28.06
2022-08-25T09:44:25.882Z,28.19
2022-08-25T09:47:05.930Z,28.29
2022-08-25T09:49:44.077Z,28.22
2022-08-25T09:52:38.825Z,28.18
2022-08-25T09:55:08.011Z,28.00
2022-08-25T09:57:45.091Z,27.98
2022-08-25T10:00:15.569Z,28.12
2022-08-25T10:02:44.646Z,28.21
2022-08-25T10:05:23.701Z,28.30
2022-08-25T10:07:57.642Z,28.43
2022-08-25T10:10:41.828Z,28.63
2022-08-25T10:13:22.894Z,28.69
2022-08-25T10:16:24.256Z,28.79
2022-08-25T10:19:13.476Z,28.92
2022-08-25T10:21:43.030Z,28.79
2022-08-25T10:24:15.571Z,28.78
2022-08-25T10:26:58.751Z,28.85
2022-08-25T10:29:50.225Z,29.13
2022-08-25T10:32:40.326Z,29.38
2022-08-25T10:35:14.315Z,29.52
2022-08-25T10:37:49.418Z,29.56
2022-08-25T10:40:26.046Z,29.55
2022-08-25T10:43:23.683Z,29.67
2022-08-25T10:46:14.761Z,29.42
2022-08-25T10:49:01.990Z,29.05
2022-08-25T10:51:35.545Z,28.82
2022-08-25T10:54:13.290Z,29.04
2022-08-25T10:57:15.728Z,29.29
2022-08-25T11:00:02.842Z,29.68
2022-08-25T11:02:38.222Z,29.76
2022-08-25T11:05:36.872Z,29.87
2022-08-25T11:08:42.409Z,30.13
2022-08-25T11:11:24.318Z,30.20
2022-08-25T11:13:53.654Z,30.18
2022-08-25T11:16:29.326Z,30.06
2022-08-25T11:19:06.996Z,30.10
2022-08-25T11:21:59.375Z,30.03
2022-08-25T11:25:04.070Z,29.53
2022-08-25T11:27:56.800Z,29.27
2022-08-25T11:30:24.265Z,29.19
2022-08-25T11:32:54.599Z,29.36
2022-08-25T11:35:34.979Z,29.73
2022-08-25T11:38:29.441Z,30.14
2022-08-25T11:41:11.469Z,30.49
2022-08-25T11:43:41.177Z,30.70
2022-08-25T11:46:27.837Z,30.27
2022-08-25T11:49:16.348Z,29.83
2022-08-25T11:51:47.597Z,29.70
2022-08-25T11:54:21.021Z,29.74
2022-08-25T11:57:02.256Z,29.90
2022-08-25T11:59:54.873Z,30.39
2022-08-25T12:02:36.813Z,30.65
2022-08-25T12:05:08.760Z,30.62
2022-08-25T12:08:07.504Z,30.23
2022-08-25T12:10:52.262Z,30.12
2022-08-25T12:13:39.667Z,30.52
2022-08-25T12:16:06.953Z,30.91
2022-08-25T12:18:33.798Z,31.25
2022-08-25T12:21:01.276Z,31.55
2022-08-25T12:23:44.995Z,31.25
2022-08-25T12:26:36.579Z,30.84
2022-08-25T12:29:08.828Z,30.36
2022-08-25T12:31:55.210Z,29.94
2022-08-25T12:34:38.537Z,29.52
2022-08-25T12:37:16.520Z,29.79
2022-08-25T12:39:58.661Z,30.44
2022-08-25T12:42:37.915Z,30.90
2022-08-25T12:45:20.082Z,31.19
2022-08-25T12:47:48.726Z,31.04
2022-08-25T12:50:29.613Z,30.98
2022-08-25T12:53:07.413Z,31.04
2022-08-25T12:55:35.000Z,31.39
2022-08-25T12:58:02.324Z,31.71
2022-08-25T13:00:37.482Z,31.76
2022-08-25T13:03:31.928Z,31.92
2022-08-25T13:06:30.313Z,32.09
2022-08-25T13:09:28.538Z,31.79
2022-08-25T13:12:27.413Z,31.50
2022-08-25T13:14:57.026Z,31.79
2022-08-25T13:17:29.716Z,32.02
2022-08-25T13:20:13.247Z,32.18
2022-08-25T13:22:40.418Z,32.24
2022-08-25T13:25:15.857Z,32.08
2022-08-25T13:27:49.029Z,32.10
2022-08-25T13:30:24.464Z,32.30
2022-08-25T13:32:50.956Z,32.21
2022-08-25T13:35:24.656Z,31.71
2022-08-25T13:37:53.900Z,31.61
2022-08-25T13:40:29.421Z,31.81
2022-08-25T13:43:01.222Z,31.61
2022-08-25T13:45:33.970Z,31.81
2022-08-25T13:48:22.723Z,31.96
2022-08-25T13:50:51.822Z,32.09
2022-08-25T13:53:25.260Z,31.68
2022-08-25T13:55:54.668Z,31.18
2022-08-25T13:58:38.700Z,30.66
2022-08-25T14:01:47.841Z,30.37
2022-08-25T14:04:27.810Z,30.10
2022-08-25T14:07:19.424Z,29.86
2022-08-25T14:10:30.162Z,29.96
2022-08-25T14:13:31.977Z,30.03
2022-08-25T14:16:22.212Z,30.11
2022-08-25T14:18:58.864Z,29.97
2022-08-25T14:21:28.977Z,29.83
2022-08-25T14:23:56.493Z,29.73
2022-08-25T14:26:24.139Z,29.72
2022-08-25T14:28:53.331Z,29.86
2022-08-25T14:31:32.034Z,29.79
2022-08-25T14:34:09.054Z,29.66
2022-08-25T14:36:39.007Z,29.51
2022-08-25T14:39:08.707Z,29.76
2022-08-25T14:41:38.748Z,29.79
2022-08-25T14:44:05.652Z,29.68
2022-08-25T14:46:36.433Z,29.81
2022-08-25T14:49:07.119Z,30.24
2022-08-25T14:51:36.608Z,30.44
2022-08-25T14:54:06.142Z,30.81
2022-08-25T14:56:33.242Z,30.74
2022-08-25T14:59:02.080Z,30.60
2022-08-25T15:01:30.056Z,30.81
2022-08-25T15:04:27.378Z,31.22
2022-08-25T15:07:01.564Z,31.39
2022-08-25T15:09:33.455Z,31.50
2022-08-25T15:12:00.282Z,31.57
2022-08-25T15:14:28.525Z,31.66
2022-08-25T15:16:59.574Z,31.78
2022-08-25T15:19:26.998Z,31.89
2022-08-25T15:21:54.307Z,31.83
2022-08-25T15:24:25.690Z,31.90
2022-08-25T15:26:55.912Z,31.91
2022-08-25T15:29:30.281Z,31.92
2022-08-25T15:31:58.488Z,31.88
2022-08-25T15:34:25.097Z,31.80
2022-08-25T15:36:51.981Z,31.81
2022-08-25T15:39:19.243Z,31.84
2022-08-25T15:41:52.439Z,31.74
2022-08-25T15:44:19.736Z,31.74
2022-08-25T15:46:50.117Z,31.69
2022-08-25T15:49:20.660Z,31.67
2022-08-25T15:51:52.340Z,31.56
2022-08-25T15:54:20.154Z,31.47
2022-08-25T15:56:47.283Z,31.41
2022-08-25T15:59:14.369Z,31.23
2022-08-25T16:01:41.759Z,31.07
2022-08-25T16:04:08.336Z,30.82
2022-08-25T16:06:35.065Z,30.65
2022-08-25T16:09:01.921Z,30.52
2022-08-25T16:11:31.503Z,30.38
2022-08-25T16:13:58.373Z,30.31
2022-08-25T16:16:28.119Z,30.24
2022-08-25T16:18:57.991Z,30.26
2022-08-25T16:21:30.367Z,30.23
2022-08-25T16:24:07.377Z,30.15
2022-08-25T16:26:36.536Z,30.11
2022-08-25T16:29:06.965Z,30.08
2022-08-25T16:31:33.593Z,30.04
2022-08-25T16:34:01.530Z,29.98
2022-08-25T16:36:28.934Z,29.94
2022-08-25T16:38:57.359Z,29.88
2022-08-25T16:41:27.096Z,29.82
2022-08-25T16:43:54.149Z,29.74
2022-08-25T16:46:22.101Z,29.64
2022-08-25T16:48:50.821Z,29.55
2022-08-25T16:51:22.460Z,29.49
2022-08-25T16:54:10.652Z,29.43
2022-08-25T16:56:37.787Z,29.39
2022-08-25T16:59:06.295Z,29.37
2022-08-25T17:01:35.403Z,29.37
2022-08-25T17:04:02.914Z,29.35
2022-08-25T17:06:33.117Z,29.35
2022-08-25T17:08:59.544Z,29.33
2022-08-25T17:11:30.427Z,29.33
2022-08-25T17:14:00.696Z,29.30
2022-08-25T17:16:31.332Z,29.26
2022-08-25T17:19:04.103Z,29.24
2022-08-25T17:21:35.348Z,29.21
2022-08-25T17:24:04.865Z,29.18
2022-08-25T17:26:31.481Z,29.14
2022-08-25T17:29:00.879Z,29.10
2022-08-25T17:31:29.969Z,29.06
2022-08-25T17:33:57.607Z,29.03
2022-08-25T17:36:26.975Z,29.00
2022-08-25T17:38:54.664Z,28.96
2022-08-25T17:41:23.752Z,28.93
2022-08-25T17:43:50.277Z,28.85
2022-08-25T17:46:17.762Z,28.77
2022-08-25T17:48:44.940Z,28.71
2022-08-25T17:51:12.012Z,28.68
2022-08-25T17:53:38.629Z,28.64
2022-08-25T17:56:09.599Z,28.56
2022-08-25T17:58:36.964Z,28.48
2022-08-25T18:01:05.933Z,28.38
2022-08-25T18:03:33.868Z,28.24
2022-08-25T18:06:00.790Z,28.16
2022-08-25T18:08:35.229Z,28.11
2022-08-25T18:11:04.614Z,28.01
2022-08-25T18:13:31.585Z,27.93
2022-08-25T18:15:58.493Z,27.88
2022-08-25T18:18:24.930Z,27.81
2022-08-25T18:20:52.360Z,27.77
2022-08-25T18:23:19.761Z,27.73
2022-08-25T18:25:48.396Z,27.65
2022-08-25T18:28:15.117Z,27.58
2022-08-25T18:30:42.310Z,27.45
2022-08-25T18:33:08.918Z,27.33
2022-08-25T18:35:36.016Z,27.25
2022-08-25T18:38:24.871Z,27.18
2022-08-25T18:40:56.821Z,27.11
2022-08-25T18:43:23.297Z,27.07
2022-08-25T18:45:49.808Z,26.99
2022-08-25T18:48:19.742Z,26.93
2022-08-25T18:50:50.674Z,26.87
2022-08-25T18:53:19.124Z,26.78
2022-08-25T18:56:04.002Z,26.70
2022-08-25T18:58:30.422Z,26.65
2022-08-25T19:00:56.879Z,26.61
2022-08-25T19:03:23.482Z,26.57
2022-08-25T19:05:57.454Z,26.52
2022-08-25T19:08:25.007Z,26.47
2022-08-25T19:10:53.257Z,26.41
2022-08-25T19:13:23.017Z,26.38
2022-08-25T19:15:51.331Z,26.33
2022-08-25T19:18:18.589Z,26.31
2022-08-25T19:20:52.568Z,26.27
2022-08-25T19:23:28.747Z,26.28
2022-08-25T19:25:55.673Z,26.27
2022-08-25T19:28:24.820Z,26.22
2022-08-25T19:30:51.383Z,26.16
2022-08-25T19:33:42.683Z,26.07
2022-08-25T19:36:08.816Z,25.99
2022-08-25T19:38:37.643Z,25.91
2022-08-25T19:41:13.945Z,25.89
2022-08-25T19:43:55.126Z,25.81
2022-08-25T19:46:25.833Z,25.76
2022-08-25T19:49:11.338Z,25.74
2022-08-25T19:51:44.672Z,25.75
2022-08-25T19:54:13.827Z,25.66
2022-08-25T19:56:54.018Z,25.62
2022-08-25T19:59:34.428Z,25.58
2022-08-25T20:02:15.040Z,25.54
2022-08-25T20:04:41.799Z,25.52
2022-08-25T20:07:08.894Z,25.46
2022-08-25T20:09:40.747Z,25.44
2022-08-25T20:12:09.127Z,25.43
2022-08-25T20:14:36.451Z,25.42
2022-08-25T20:17:03.942Z,25.43
2022-08-25T20:19:41.194Z,25.41
2022-08-25T20:22:11.262Z,25.38
2022-08-25T20:24:51.061Z,25.35
2022-08-25T20:27:27.836Z,25.32
2022-08-25T20:29:54.328Z,25.26
2022-08-25T20:32:21.195Z,25.22
2022-08-25T20:34:48.472Z,25.15
2022-08-25T20:37:20.934Z,25.12
2022-08-25T20:39:47.963Z,25.07
2022-08-25T20:42:14.954Z,25.01
2022-08-25T20:44:42.261Z,24.99
2022-08-25T20:47:10.542Z,24.96
2022-08-25T20:49:39.192Z,24.93
2022-08-25T20:52:07.457Z,24.89
2022-08-25T20:54:34.217Z,24.84
2022-08-25T20:57:01.118Z,24.81
2022-08-25T20:59:29.042Z,24.77
2022-08-25T21:01:56.155Z,24.72
2022-08-25T21:04:24.721Z,24.68
2022-08-25T21:06:51.596Z,24.61
2022-08-25T21:09:21.442Z,24.56
2022-08-25T21:11:48.296Z,24.54
2022-08-25T21:14:16.412Z,24.51
2022-08-25T21:16:47.177Z,24.49
2022-08-25T21:19:26.701Z,24.47
2022-08-25T21:21:59.815Z,24.45
2022-08-25T21:24:27.927Z,24.42
2022-08-25T21:26:56.398Z,24.39
2022-08-25T21:29:25.779Z,24.35
2022-08-25T21:31:55.459Z,24.36
2022-08-25T21:34:21.980Z,24.33
2022-08-25T21:36:48.941Z,24.29
2022-08-25T21:39:15.525Z,24.27
2022-08-25T21:41:44.128Z,24.23
2022-08-25T21:44:13.768Z,24.20
2022-08-25T21:46:41.713Z,24.15
2022-08-25T21:49:20.421Z,24.09
2022-08-25T21:51:47.040Z,24.07
2022-08-25T21:54:17.286Z,24.05
2022-08-25T21:56:49.668Z,24.00
2022-08-25T21:59:21.667Z,24.01
2022-08-25T22:01:48.376Z,24.04
2022-08-25T22:04:15.421Z,24.05
2022-08-25T22:06:42.230Z,24.00
2022-08-25T22:09:12.740Z,23.97
2022-08-25T22:11:41.879Z,23.95
2022-08-25T22:14:09.747Z,23.94
2022-08-25T22:16:37.349Z,23.94
2022-08-25T22:19:05.797Z,23.90
2022-08-25T22:21:33.427Z,23.86
2022-08-25T22:24:00.393Z,23.82
2022-08-25T22:26:31.361Z,23.79
2022-08-25T22:28:59.342Z,23.73
2022-08-25T22:31:27.486Z,23.71
2022-08-25T22:33:55.603Z,23.70
2022-08-25T22:36:33.476Z,23.64
2022-08-25T22:39:00.248Z,23.65
2022-08-25T22:41:29.097Z,23.63
2022-08-25T22:43:56.776Z,23.62
2022-08-25T22:46:27.920Z,23.55
2022-08-25T22:48:55.662Z,23.54
2022-08-25T22:51:28.283Z,23.52
2022-08-25T22:53:54.731Z,23.50
2022-08-25T22:56:29.722Z,23.46
2022-08-25T22:58:59.608Z,23.44
2022-08-25T23:01:26.080Z,23.39
2022-08-25T23:03:52.659Z,23.39
2022-08-25T23:06:24.717Z,23.34
2022-08-25T23:08:53.539Z,23.34
2022-08-25T23:11:21.952Z,23.33
2022-08-25T23:13:49.186Z,23.32
2022-08-25T23:16:16.724Z,23.32
2022-08-25T23:18:44.901Z,23.30
2022-08-25T23:21:38.207Z,23.27
2022-08-25T23:24:08.232Z,23.26
2022-08-25T23:26:34.695Z,23.26
2022-08-25T23:29:03.241Z,23.25
2022-08-25T23:31:43.891Z,23.18
2022-08-25T23:34:10.614Z,23.10
2022-08-25T23:36:37.934Z,23.09
2022-08-25T23:39:05.715Z,23.09
2022-08-25T23:41:34.220Z,23.06
2022-08-25T23:44:05.202Z,23.02
2022-08-25T23:46:33.046Z,22.99
2022-08-25T23:48:59.669Z,22.98
2022-08-25T23:51:29.724Z,22.97
2022-08-25T23:53:57.459Z,22.94
2022-08-25T23:56:25.838Z,22.96
2022-08-25T23:58:52.509Z,22.97
